Tropical Cyclones
[Index]
Season 2020-2021 Tropical Cyclone LUCAS Track Map
Season 2020-2021 Summaries (Operational Data): [AU] [SIO] [SPAC] [SH]
<<- Previous TC | 2020-2021 Season | Next TC ->>

click for intensity scale information  Lat/long Grid: Show Hide

 Date Labels: Show Hide

Operational Tropical Cyclone Data

Name: LUCAS
Number: 2117

23 Jan 2021 00:00 UTC to 05 Feb 2021 18:00 UTC

    date/time    lat    long     hPa   cat  kts
2021-01-23 00   12.3   137.5    1010         15          
2021-01-23 06   12.5   137.8    1010         15          
2021-01-23 12   12.8   138.0    1007         15          
2021-01-23 18   13.2   138.2    1003         15          
2021-01-24 00   13.3   137.7    1005         15          
2021-01-24 06   13.0   137.7    1003         15          
2021-01-24 12   13.5   138.1    1004         20          
2021-01-24 18   14.0   138.6    1003         20          
2021-01-25 00   14.8   139.2    1003         20          
2021-01-25 06   15.1   139.3    1001         20          
2021-01-25 12   15.5   139.3    1000         20          
2021-01-25 18   15.6   139.7     998         20          
2021-01-26 00   15.5   140.1    1000         20          
2021-01-26 06   15.3   140.5    1000         20          
2021-01-26 12   15.1   140.8    1000         20          
2021-01-26 18   14.9   141.4     997         20          
2021-01-27 00   15.0   141.5    1002         20          
2021-01-27 06   14.9   141.8    1000         20          
2021-01-27 12   14.8   142.1    1001         20          
2021-01-27 18   14.8   142.3    1001         20          
2021-01-28 00   14.7   142.5    1001         20          
2021-01-28 06   14.7   142.7     999         20          
2021-01-28 12   14.7   142.9     999         20          
2021-01-28 18   14.5   143.2     999         20          
2021-01-29 00   14.2   143.9     999         20          
2021-01-29 06   13.7   144.9     999         20          
2021-01-29 12   13.3   146.3    1002         20          
2021-01-29 18   13.2   147.5     999         20          
2021-01-30 00   13.3   148.2    1002         20          
2021-01-30 06   13.5   149.2     997         25          
2021-01-30 12   13.9   150.3     997         25          
2021-01-30 18   13.9   151.5     997         25          
2021-01-31 00   13.9   152.3     995    1    35          
2021-01-31 06   13.6   153.8     989    1    45          
2021-01-31 12   13.2   155.2     987    2    50          
2021-01-31 18   13.7   157.2     989    2    50          
2021-02-01 00   14.1   158.6     989    2    50          
2021-02-01 06   14.8   160.9     983    2    55          
2021-02-01 12   15.7   162.6     980    2    55          
2021-02-01 18   16.6   164.0     983    2    55          
2021-02-02 00   17.1   165.0     990    1    40          
2021-02-02 06   18.4   166.1     988    1    45          
2021-02-02 12   19.6   166.8     988    1    45          
2021-02-02 18   20.6   167.3     988    1    45          
2021-02-03 00   21.9   167.1     990    1    35          
2021-02-03 06   22.5   167.0     988    1    40          
2021-02-03 12   22.5   166.6     991    1    35          
2021-02-03 18   22.6   166.3     997         25          
2021-02-04 00   22.6   165.6    1000         20          
2021-02-04 06   23.1   165.6     999         20          
2021-02-04 12   23.1   165.1                             
2021-02-04 18   24.8   164.6                             
2021-02-05 00   25.1   163.7                             
2021-02-05 06   25.0   163.6                             
2021-02-05 12   25.3   162.7                             
2021-02-05 18   25.4   161.4                             
Winds were reported as (or converted to) 10-min average.

Tropical cyclone tracks developed by Michael Bath using operational warnings and advisories and Google Maps.


Document: tropical_cyclone_lucas.htm
Updated: 7 May 2021
[Australian Severe Weather index] [Copyright Notice] [Email Contacts] [Search This Site] [Privacy Policy]


Main Index Home Page Stock Weather Photos Extreme Storms Discussion Storm News and Storm Chasing Reports Tropical Cyclones / Hurricanes / Typhoons Weather Data and Links Wild Fires / Bushfires Weather Observation Techniques Weather Picture Catalogue Tornado Pictures and Reports Stock Video Footage and DVDs for sale